createdAt,value
2023-04-16T00:00:48.214Z,97604.19
2023-04-16T00:03:15.952Z,97606.03
2023-04-16T00:05:43.640Z,97606.63
2023-04-16T00:08:11.133Z,97604.50
2023-04-16T00:10:38.720Z,97604.97
2023-04-16T00:13:06.211Z,97598.94
2023-04-16T00:15:33.669Z,97593.78
2023-04-16T00:18:02.507Z,97601.44
2023-04-16T00:20:30.083Z,97605.97
2023-04-16T00:22:57.559Z,97613.63
2023-04-16T00:25:25.020Z,97613.88
2023-04-16T00:27:52.503Z,97613.09
2023-04-16T00:30:20.156Z,97603.06
2023-04-16T00:32:47.722Z,97603.59
2023-04-16T00:35:16.712Z,97605.97
2023-04-16T00:37:44.413Z,97608.56
2023-04-16T00:40:12.656Z,97609.38
2023-04-16T00:42:40.254Z,97607.19
2023-04-16T00:45:09.076Z,97603.22
2023-04-16T00:47:36.438Z,97605.09
2023-04-16T00:50:04.968Z,97603.97
2023-04-16T00:52:34.342Z,97605.16
2023-04-16T00:55:02.228Z,97608.34
2023-04-16T00:57:29.793Z,97607.50
2023-04-16T00:59:57.486Z,97600.59
2023-04-16T01:02:25.431Z,97604.34
2023-04-16T01:04:53.115Z,97594.47
2023-04-16T01:07:20.789Z,97607.06
2023-04-16T01:09:49.576Z,97597.69
2023-04-16T01:12:16.898Z,97602.31
2023-04-16T01:14:44.284Z,97606.00
2023-04-16T01:17:12.207Z,97602.28
2023-04-16T01:19:39.672Z,97607.47
2023-04-16T01:22:08.466Z,97604.72
2023-04-16T01:24:36.319Z,97600.84
2023-04-16T01:27:03.845Z,97598.00
2023-04-16T01:29:31.448Z,97588.91
2023-04-16T01:31:58.904Z,97587.00
2023-04-16T01:34:26.410Z,97593.41
2023-04-16T01:36:53.883Z,97604.66
2023-04-16T01:39:22.698Z,97603.66
2023-04-16T01:41:50.038Z,97607.53
2023-04-16T01:44:17.544Z,97610.00
2023-04-16T01:46:46.186Z,97604.41
2023-04-16T01:49:13.837Z,97605.69
2023-04-16T01:51:41.994Z,97613.69
2023-04-16T01:54:10.476Z,97604.34
2023-04-16T01:56:39.314Z,97611.22
2023-04-16T01:59:06.876Z,97610.06
2023-04-16T02:01:34.505Z,97604.72
2023-04-16T02:04:02.042Z,97591.28
2023-04-16T02:06:30.494Z,97609.06
2023-04-16T02:08:57.954Z,97601.97
2023-04-16T02:11:25.708Z,97596.72
2023-04-16T02:13:54.463Z,97599.75
2023-04-16T02:16:21.860Z,97612.19
2023-04-16T02:18:49.370Z,97598.09
2023-04-16T02:21:17.006Z,97599.59
2023-04-16T02:23:47.471Z,97593.25
2023-04-16T02:26:14.931Z,97590.84
2023-04-16T02:28:42.395Z,97599.75
2023-04-16T02:31:11.195Z,97603.59
2023-04-16T02:33:38.517Z,97612.19
2023-04-16T02:36:06.723Z,97615.69
2023-04-16T02:38:34.182Z,97610.31
2023-04-16T02:41:01.729Z,97616.47
2023-04-16T02:43:29.381Z,97606.31
2023-04-16T02:45:56.984Z,97607.78
2023-04-16T02:48:26.192Z,97604.84
2023-04-16T02:50:53.648Z,97605.38
2023-04-16T02:53:21.322Z,97612.72
2023-04-16T02:55:52.400Z,97616.44
2023-04-16T02:58:19.936Z,97600.13
2023-04-16T03:00:47.483Z,97598.03
2023-04-16T03:03:15.416Z,97603.09
2023-04-16T03:05:44.420Z,97596.38
2023-04-16T03:08:11.995Z,97597.47
2023-04-16T03:10:39.974Z,97605.59
2023-04-16T03:13:07.726Z,97604.31
2023-04-16T03:15:35.244Z,97612.28
2023-04-16T03:18:02.798Z,97616.69
2023-04-16T03:20:30.329Z,97614.03
2023-04-16T03:22:59.235Z,97614.50
2023-04-16T03:25:26.821Z,97605.75
2023-04-16T03:27:54.251Z,97613.31
2023-04-16T03:30:21.737Z,97609.34
2023-04-16T03:32:49.253Z,97611.47
2023-04-16T03:35:16.728Z,97610.09
2023-04-16T03:37:44.693Z,97616.19
2023-04-16T03:40:14.522Z,97621.41
2023-04-16T03:42:42.035Z,97619.94
2023-04-16T03:45:10.451Z,97615.59
2023-04-16T03:47:38.140Z,97617.47
2023-04-16T03:50:06.617Z,97619.75
2023-04-16T03:52:34.091Z,97616.09
2023-04-16T03:55:03.724Z,97615.50
2023-04-16T03:57:32.524Z,97633.94
2023-04-16T03:59:59.826Z,97619.94
2023-04-16T04:02:27.414Z,97618.19
2023-04-16T04:04:55.336Z,97621.78
2023-04-16T04:07:22.845Z,97632.75
2023-04-16T04:09:50.496Z,97622.81
2023-04-16T04:12:17.945Z,97639.38
2023-04-16T04:14:46.761Z,97623.06
2023-04-16T04:17:14.132Z,97630.91
2023-04-16T04:19:47.197Z,97632.38
2023-04-16T04:22:22.014Z,97632.19
2023-04-16T04:24:49.493Z,97634.22
2023-04-16T04:27:16.972Z,97632.38
2023-04-16T04:29:44.486Z,97633.19
2023-04-16T04:32:13.305Z,97651.97
2023-04-16T04:34:40.798Z,97657.69
2023-04-16T04:37:08.279Z,97670.00
2023-04-16T04:39:35.767Z,97672.78
2023-04-16T04:42:03.874Z,97666.72
2023-04-16T04:44:31.355Z,97666.09
2023-04-16T04:46:58.894Z,97673.50
2023-04-16T04:49:27.743Z,97663.59
2023-04-16T04:51:55.406Z,97677.25
2023-04-16T04:54:23.129Z,97673.06
2023-04-16T04:56:52.362Z,97684.34
2023-04-16T04:59:21.439Z,97674.09
2023-04-16T05:01:48.995Z,97673.72
2023-04-16T05:04:16.810Z,97670.50
2023-04-16T05:06:45.721Z,97679.44
2023-04-16T05:09:13.256Z,97685.66
2023-04-16T05:11:42.759Z,97694.13
2023-04-16T05:14:10.218Z,97680.75
2023-04-16T05:16:38.853Z,97674.84
2023-04-16T05:19:06.614Z,97678.16
2023-04-16T05:21:34.862Z,97689.09
2023-04-16T05:24:03.765Z,97691.13
2023-04-16T05:26:31.244Z,97689.84
2023-04-16T05:28:58.749Z,97694.19
2023-04-16T05:31:26.231Z,97696.94
2023-04-16T05:33:53.705Z,97694.34
2023-04-16T05:36:21.297Z,97691.88
2023-04-16T05:38:48.717Z,97699.97
2023-04-16T05:41:17.501Z,97700.28
2023-04-16T05:43:44.829Z,97698.34
2023-04-16T05:46:13.488Z,97700.19
2023-04-16T05:48:40.919Z,97701.47
2023-04-16T05:51:08.380Z,97695.13
2023-04-16T05:53:35.847Z,97701.75
2023-04-16T05:56:03.278Z,97714.25
2023-04-16T05:58:32.116Z,97727.41
2023-04-16T06:00:59.667Z,97739.81
2023-04-16T06:03:27.428Z,97745.19
2023-04-16T06:05:55.107Z,97744.91
2023-04-16T06:08:22.799Z,97744.09
2023-04-16T06:10:50.280Z,97740.66
2023-04-16T06:13:17.859Z,97732.97
2023-04-16T06:15:46.719Z,97741.53
2023-04-16T06:18:14.268Z,97747.81
2023-04-16T06:20:41.759Z,97753.38
2023-04-16T06:23:09.197Z,97750.34
2023-04-16T06:25:36.707Z,97749.06
2023-04-16T06:28:04.126Z,97748.69
2023-04-16T06:30:31.616Z,97753.53
2023-04-16T06:33:03.281Z,97756.59
2023-04-16T06:35:30.797Z,97761.34
2023-04-16T06:37:58.567Z,97763.06
2023-04-16T06:40:26.020Z,97764.63
2023-04-16T06:42:53.529Z,97766.31
2023-04-16T06:45:21.142Z,97771.81
2023-04-16T06:47:49.700Z,97766.78
2023-04-16T06:50:18.732Z,97764.31
2023-04-16T06:52:46.291Z,97754.91
2023-04-16T06:55:13.794Z,97764.19
2023-04-16T06:57:41.584Z,97773.56
2023-04-16T07:00:10.109Z,97782.50
2023-04-16T07:02:37.691Z,97777.09
2023-04-16T07:05:06.155Z,97781.88
2023-04-16T07:07:34.941Z,97791.16
2023-04-16T07:10:02.323Z,97797.28
2023-04-16T07:12:29.921Z,97791.88
2023-04-16T07:14:57.605Z,97791.78
2023-04-16T07:17:25.231Z,97789.59
2023-04-16T07:19:52.984Z,97796.97
2023-04-16T07:22:21.132Z,97792.56
2023-04-16T07:24:49.914Z,97793.19
2023-04-16T07:27:17.662Z,97801.28
2023-04-16T07:29:45.986Z,97809.34
2023-04-16T07:32:15.464Z,97798.28
2023-04-16T07:34:45.945Z,97806.06
2023-04-16T07:37:13.434Z,97810.50
2023-04-16T07:39:40.965Z,97806.63
2023-04-16T07:42:09.883Z,97811.72
2023-04-16T07:44:37.410Z,97808.09
2023-04-16T07:47:07.584Z,97807.28
2023-04-16T07:49:35.101Z,97810.34
2023-04-16T07:52:03.091Z,97809.31
2023-04-16T07:54:30.693Z,97814.94
2023-04-16T07:56:58.158Z,97803.16
2023-04-16T07:59:27.321Z,97802.22
2023-04-16T08:01:55.282Z,97799.09
2023-04-16T08:04:25.022Z,97803.59
2023-04-16T08:06:53.318Z,97803.22
2023-04-16T08:09:21.482Z,97807.66
2023-04-16T08:11:50.329Z,97811.91
2023-04-16T08:14:17.861Z,97818.81
2023-04-16T08:16:47.099Z,97816.72
2023-04-16T08:19:14.533Z,97824.19
2023-04-16T08:21:42.053Z,97821.94
2023-04-16T08:24:09.531Z,97825.91
2023-04-16T08:26:37.049Z,97823.69
2023-04-16T08:29:04.521Z,97833.03
2023-04-16T08:31:32.186Z,97830.56
2023-04-16T08:34:01.429Z,97829.59
2023-04-16T08:36:31.246Z,97837.28
2023-04-16T08:39:00.290Z,97848.22
2023-04-16T08:41:30.662Z,97843.63
2023-04-16T08:44:00.999Z,97847.78
2023-04-16T08:46:30.055Z,97850.06
2023-04-16T08:49:01.525Z,97851.94
2023-04-16T08:51:35.577Z,97852.28
2023-04-16T08:54:07.010Z,97855.63
2023-04-16T08:56:37.646Z,97854.38
2023-04-16T08:59:05.986Z,97849.56
2023-04-16T09:01:34.124Z,97846.72
2023-04-16T09:04:03.907Z,97852.88
2023-04-16T09:06:32.164Z,97855.63
2023-04-16T09:09:04.402Z,97862.19
2023-04-16T09:11:32.192Z,97866.44
2023-04-16T09:14:01.530Z,97858.34
2023-04-16T09:16:34.448Z,97868.22
2023-04-16T09:19:03.762Z,97869.53
2023-04-16T09:21:32.111Z,97875.66
2023-04-16T09:24:00.962Z,97885.97
2023-04-16T09:26:28.960Z,97889.00
2023-04-16T09:28:56.465Z,97885.88
2023-04-16T09:31:23.939Z,97892.78
2023-04-16T09:34:13.537Z,97897.59
2023-04-16T09:36:40.986Z,97898.03
2023-04-16T09:39:08.637Z,97904.31
2023-04-16T09:41:39.401Z,97895.00
2023-04-16T09:44:06.914Z,97902.06
2023-04-16T09:46:36.525Z,97897.19
2023-04-16T09:49:06.425Z,97902.16
2023-04-16T09:51:39.549Z,97901.78
2023-04-16T09:54:07.315Z,97908.44
2023-04-16T09:56:40.267Z,97912.84
2023-04-16T09:59:08.061Z,97907.94
2023-04-16T10:01:37.729Z,97913.13
2023-04-16T10:04:07.779Z,97909.72
2023-04-16T10:06:35.495Z,97905.41
2023-04-16T10:09:08.584Z,97914.69
2023-04-16T10:11:36.471Z,97920.50
2023-04-16T10:14:04.667Z,97917.16
2023-04-16T10:16:32.210Z,97915.31
2023-04-16T10:19:00.209Z,97920.75
2023-04-16T10:21:33.601Z,97928.63
2023-04-16T10:24:01.548Z,97931.50
2023-04-16T10:26:31.402Z,97929.38
2023-04-16T10:28:59.482Z,97933.63
2023-04-16T10:31:28.254Z,97941.00
2023-04-16T10:33:56.879Z,97941.50
2023-04-16T10:36:26.386Z,97938.53
2023-04-16T10:38:57.659Z,97932.53
2023-04-16T10:41:26.971Z,97930.22
2023-04-16T10:44:09.233Z,97927.78
2023-04-16T10:46:39.762Z,97933.72
2023-04-16T10:49:15.084Z,97936.19
2023-04-16T10:51:43.013Z,97933.34
2023-04-16T10:54:22.062Z,97929.81
2023-04-16T10:56:51.456Z,97926.31
2023-04-16T10:59:21.909Z,97944.88
2023-04-16T11:01:51.807Z,97943.13
2023-04-16T11:04:39.443Z,97946.63
2023-04-16T11:07:17.681Z,97946.53
2023-04-16T11:09:47.428Z,97942.56
2023-04-16T11:12:15.999Z,97947.19
2023-04-16T11:14:48.786Z,97947.09
2023-04-16T11:17:17.007Z,97944.16
2023-04-16T11:19:45.812Z,97944.63
2023-04-16T11:22:15.226Z,97947.38
2023-04-16T11:24:42.673Z,97947.38
2023-04-16T11:27:11.121Z,97949.88
2023-04-16T11:29:38.608Z,97954.13
2023-04-16T11:32:07.650Z,97960.31
2023-04-16T11:34:35.275Z,97968.25
2023-04-16T11:37:02.792Z,97960.28
2023-04-16T11:39:30.389Z,97956.97
2023-04-16T11:41:57.900Z,97961.59
2023-04-16T11:44:27.805Z,97954.94
2023-04-16T11:46:55.402Z,97957.03
2023-04-16T11:49:30.577Z,97963.22
2023-04-16T11:51:58.559Z,97963.31
2023-04-16T11:54:26.403Z,97966.22
2023-04-16T11:56:54.601Z,97960.00
2023-04-16T11:59:23.741Z,97967.03
2023-04-16T12:01:52.823Z,97964.38
2023-04-16T12:04:22.207Z,97962.50
2023-04-16T12:07:11.759Z,97963.69
2023-04-16T12:09:41.371Z,97967.47
2023-04-16T12:12:27.259Z,97961.06
2023-04-16T12:14:56.699Z,97954.81
2023-04-16T12:17:24.874Z,97963.56
2023-04-16T12:19:53.586Z,97965.34
2023-04-16T12:22:29.606Z,97957.63
2023-04-16T12:24:59.884Z,97962.50
2023-04-16T12:27:28.493Z,97975.50
2023-04-16T12:30:06.728Z,97970.69
2023-04-16T12:32:34.453Z,97976.72
2023-04-16T12:35:02.249Z,97981.03
2023-04-16T12:37:31.396Z,97976.66
2023-04-16T12:39:58.947Z,97977.19
2023-04-16T12:42:26.452Z,97975.72
2023-04-16T12:44:54.016Z,97968.31
2023-04-16T12:47:21.485Z,97968.72
2023-04-16T12:49:48.942Z,97975.44
2023-04-16T12:52:16.460Z,97983.75
2023-04-16T12:54:45.350Z,97977.75
2023-04-16T12:57:13.301Z,97987.09
2023-04-16T12:59:40.774Z,97988.66
2023-04-16T13:02:08.579Z,97986.25
2023-04-16T13:04:36.313Z,97982.44
2023-04-16T13:07:04.022Z,97983.47
2023-04-16T13:09:31.898Z,97989.09
2023-04-16T13:12:00.761Z,97983.72
2023-04-16T13:14:28.417Z,97981.81
2023-04-16T13:16:56.006Z,97980.97
2023-04-16T13:19:23.487Z,97987.97
2023-04-16T13:21:51.238Z,97984.34
2023-04-16T13:24:19.121Z,97978.16
2023-04-16T13:26:46.624Z,97975.13
2023-04-16T13:29:15.486Z,97975.56
2023-04-16T13:31:43.020Z,97971.13
2023-04-16T13:34:10.633Z,97975.53
2023-04-16T13:36:38.224Z,97967.19
2023-04-16T13:39:10.620Z,97959.69
2023-04-16T13:41:38.395Z,97961.59
2023-04-16T13:44:06.271Z,97959.53
2023-04-16T13:46:35.358Z,97967.66
2023-04-16T13:49:02.994Z,97966.53
2023-04-16T13:51:30.445Z,97973.16
2023-04-16T13:53:57.915Z,97966.13
2023-04-16T13:56:25.928Z,97976.84
2023-04-16T13:58:53.437Z,97971.38
2023-04-16T14:01:21.109Z,97971.03
2023-04-16T14:03:50.300Z,97975.84
2023-04-16T14:06:18.093Z,97975.16
2023-04-16T14:08:45.923Z,97966.16
2023-04-16T14:11:13.460Z,97970.56
2023-04-16T14:13:41.055Z,97980.69
2023-04-16T14:16:08.571Z,97975.34
2023-04-16T14:18:40.969Z,97973.09
2023-04-16T14:21:09.948Z,97967.88
2023-04-16T14:23:37.452Z,97969.41
2023-04-16T14:26:05.111Z,97971.38
2023-04-16T14:28:32.652Z,97978.78
2023-04-16T14:31:00.098Z,97980.78
2023-04-16T14:33:27.714Z,97976.84
2023-04-16T14:35:55.825Z,97980.31
2023-04-16T14:38:24.759Z,97979.75
2023-04-16T14:40:52.307Z,97978.41
2023-04-16T14:43:19.759Z,97976.75
2023-04-16T14:45:47.368Z,97974.16
2023-04-16T14:48:14.920Z,97974.59
2023-04-16T14:50:43.914Z,97975.34
2023-04-16T14:53:12.340Z,97972.97
2023-04-16T14:55:41.175Z,97966.28
2023-04-16T14:58:08.687Z,97980.38
2023-04-16T15:00:36.327Z,97974.91
2023-04-16T15:03:04.022Z,97976.34
2023-04-16T15:05:32.408Z,97980.28
2023-04-16T15:08:00.471Z,97987.97
2023-04-16T15:10:27.967Z,97974.06
2023-04-16T15:12:56.746Z,97987.03
2023-04-16T15:15:24.205Z,97976.75
2023-04-16T15:17:51.903Z,97984.09
2023-04-16T15:20:19.424Z,97988.72
2023-04-16T15:22:46.896Z,97989.63
2023-04-16T15:25:14.479Z,97993.81
2023-04-16T15:27:41.950Z,98003.88
2023-04-16T15:30:12.562Z,98003.03
2023-04-16T15:32:40.083Z,98001.00
2023-04-16T15:35:11.030Z,98003.31
2023-04-16T15:37:38.905Z,98008.16
2023-04-16T15:40:08.393Z,98009.25
2023-04-16T15:42:36.050Z,98008.91
2023-04-16T15:45:03.570Z,98011.03
2023-04-16T15:47:32.411Z,98011.97
2023-04-16T15:49:59.945Z,98017.41
2023-04-16T15:52:27.494Z,98012.94
2023-04-16T15:54:55.758Z,98020.81
2023-04-16T15:57:23.201Z,98022.03
2023-04-16T16:00:06.036Z,98019.16
2023-04-16T16:02:36.259Z,98021.81
2023-04-16T16:05:04.629Z,98034.78
2023-04-16T16:07:32.180Z,98031.75
2023-04-16T16:09:59.879Z,98033.78
2023-04-16T16:12:27.375Z,98029.97
2023-04-16T16:14:54.865Z,98040.16
2023-04-16T16:17:22.433Z,98031.66
2023-04-16T16:19:52.231Z,98037.94
2023-04-16T16:22:20.570Z,98035.91
2023-04-16T16:24:48.971Z,98040.63
2023-04-16T16:27:16.451Z,98047.28
2023-04-16T16:29:43.998Z,98049.31
2023-04-16T16:32:11.726Z,98044.50
2023-04-16T16:34:39.193Z,98047.66
2023-04-16T16:37:08.188Z,98039.44
2023-04-16T16:39:38.329Z,98044.41
2023-04-16T16:42:06.806Z,98045.72
2023-04-16T16:44:34.251Z,98051.38
2023-04-16T16:47:01.834Z,98060.88
2023-04-16T16:49:29.310Z,98060.22
2023-04-16T16:51:57.546Z,98058.53
2023-04-16T16:54:26.331Z,98059.47
2023-04-16T16:56:53.918Z,98057.38
2023-04-16T16:59:21.449Z,98060.28
2023-04-16T17:01:48.986Z,98069.00
2023-04-16T17:04:19.351Z,98074.59
2023-04-16T17:06:47.713Z,98069.06
2023-04-16T17:09:15.400Z,98074.22
2023-04-16T17:11:44.370Z,98071.81
2023-04-16T17:14:11.793Z,98070.88
2023-04-16T17:16:39.332Z,98074.50
2023-04-16T17:19:06.851Z,98079.47
2023-04-16T17:21:34.305Z,98083.00
2023-04-16T17:24:01.789Z,98075.94
2023-04-16T17:26:29.264Z,98088.81
2023-04-16T17:28:59.214Z,98089.03
2023-04-16T17:31:27.652Z,98093.56
2023-04-16T17:33:55.387Z,98091.84
2023-04-16T17:36:23.151Z,98103.84
2023-04-16T17:38:51.114Z,98096.22
2023-04-16T17:41:19.457Z,98113.94
2023-04-16T17:43:48.783Z,98109.38
2023-04-16T17:46:18.139Z,98117.22
2023-04-16T17:48:47.386Z,98120.00
2023-04-16T17:51:16.220Z,98115.84
2023-04-16T17:53:44.632Z,98114.81
2023-04-16T17:56:12.435Z,98122.19
2023-04-16T17:58:39.939Z,98122.75
2023-04-16T18:01:07.461Z,98124.50
2023-04-16T18:03:37.004Z,98123.50
2023-04-16T18:06:05.168Z,98130.00
2023-04-16T18:08:33.672Z,98137.03
2023-04-16T18:11:01.157Z,98135.34
2023-04-16T18:13:31.431Z,98136.31
2023-04-16T18:15:58.931Z,98134.66
2023-04-16T18:18:26.422Z,98137.50
2023-04-16T18:20:55.306Z,98145.22
2023-04-16T18:23:22.749Z,98145.91
2023-04-16T18:25:50.218Z,98153.75
2023-04-16T18:28:18.220Z,98153.81
2023-04-16T18:30:46.036Z,98147.75
2023-04-16T18:35:44.044Z,98158.38
2023-04-16T18:38:13.501Z,98165.06
2023-04-16T18:40:42.100Z,98162.56
2023-04-16T18:43:09.524Z,98173.50
2023-04-16T18:45:37.148Z,98170.53
2023-04-16T18:48:04.806Z,98175.56
2023-04-16T18:50:32.280Z,98173.94
2023-04-16T18:52:59.868Z,98173.25
2023-04-16T18:55:30.028Z,98178.13
2023-04-16T18:57:57.634Z,98173.22
2023-04-16T19:00:25.104Z,98179.31
2023-04-16T19:02:52.641Z,98182.81
2023-04-16T19:05:21.073Z,98186.13
2023-04-16T19:07:48.674Z,98187.53
2023-04-16T19:10:16.118Z,98192.19
2023-04-16T19:12:44.921Z,98196.16
2023-04-16T19:15:14.566Z,98196.13
2023-04-16T19:17:42.075Z,98197.00
2023-04-16T19:20:11.270Z,98201.59
2023-04-16T19:22:38.859Z,98204.19
2023-04-16T19:25:07.574Z,98202.66
2023-04-16T19:27:35.438Z,98206.72
2023-04-16T19:30:05.034Z,98208.75
2023-04-16T19:32:32.514Z,98206.56
2023-04-16T19:35:00.054Z,98213.53
2023-04-16T19:37:28.042Z,98214.44
2023-04-16T19:39:55.583Z,98212.59
2023-04-16T19:42:23.087Z,98218.91
2023-04-16T19:44:50.633Z,98208.81
2023-04-16T19:47:19.871Z,98209.94
2023-04-16T19:49:47.377Z,98219.28
2023-04-16T19:52:14.820Z,98214.88
2023-04-16T19:54:42.874Z,98223.97
2023-04-16T19:57:10.388Z,98226.78
2023-04-16T19:59:39.962Z,98223.88
2023-04-16T20:02:07.970Z,98229.94
2023-04-16T20:04:36.855Z,98232.91
2023-04-16T20:07:04.308Z,98232.16
2023-04-16T20:09:31.778Z,98234.69
2023-04-16T20:11:59.284Z,98244.38
2023-04-16T20:14:26.704Z,98239.72
2023-04-16T20:16:54.193Z,98238.91
2023-04-16T20:19:22.039Z,98246.75
2023-04-16T20:21:50.930Z,98246.41
2023-04-16T20:24:18.446Z,98239.66
2023-04-16T20:26:46.043Z,98234.69
2023-04-16T20:29:16.380Z,98238.94
2023-04-16T20:31:45.824Z,98231.59
2023-04-16T20:34:15.502Z,98239.25
2023-04-16T20:36:42.963Z,98235.59
2023-04-16T20:39:12.471Z,98239.75
2023-04-16T20:41:43.798Z,98237.44
2023-04-16T20:44:18.701Z,98234.56
2023-04-16T20:46:49.369Z,98235.59
2023-04-16T20:49:17.558Z,98231.88
2023-04-16T20:51:45.034Z,98238.22
2023-04-16T20:54:13.935Z,98236.94
2023-04-16T20:56:41.556Z,98235.06
2023-04-16T20:59:09.215Z,98227.25
2023-04-16T21:01:37.029Z,98235.13
2023-04-16T21:04:04.723Z,98234.63
2023-04-16T21:06:32.877Z,98233.25
2023-04-16T21:09:00.548Z,98235.06
2023-04-16T21:11:33.129Z,98231.06
2023-04-16T21:14:00.681Z,98236.56
2023-04-16T21:16:28.242Z,98233.59
2023-04-16T21:18:56.057Z,98226.06
2023-04-16T21:21:23.629Z,98230.41
2023-04-16T21:23:51.577Z,98226.06
2023-04-16T21:26:19.030Z,98229.41
2023-04-16T21:28:48.039Z,98229.41
2023-04-16T21:31:15.621Z,98233.28
2023-04-16T21:33:43.067Z,98233.91
2023-04-16T21:36:11.402Z,98233.28
2023-04-16T21:38:40.699Z,98230.09
2023-04-16T21:41:08.260Z,98230.59
2023-04-16T21:43:35.802Z,98231.94
2023-04-16T21:46:04.622Z,98233.59
2023-04-16T21:48:32.141Z,98231.22
2023-04-16T21:51:06.179Z,98231.47
2023-04-16T21:53:34.309Z,98225.78
2023-04-16T21:56:01.901Z,98231.13
2023-04-16T21:58:29.420Z,98234.28
2023-04-16T22:00:56.923Z,98228.25
2023-04-16T22:03:27.887Z,98233.28
2023-04-16T22:06:00.523Z,98229.09
2023-04-16T22:08:28.108Z,98225.03
2023-04-16T22:10:59.364Z,98225.09
2023-04-16T22:13:27.429Z,98223.75
2023-04-16T22:15:55.817Z,98217.56
2023-04-16T22:18:26.329Z,98220.91
2023-04-16T22:20:54.892Z,98225.09
2023-04-16T22:23:22.548Z,98222.56
2023-04-16T22:25:49.975Z,98220.88
2023-04-16T22:28:17.461Z,98221.94
2023-04-16T22:30:44.961Z,98223.59
2023-04-16T22:33:12.486Z,98217.94
2023-04-16T22:35:41.504Z,98219.25
2023-04-16T22:38:09.958Z,98226.97
2023-04-16T22:40:37.489Z,98230.16
2023-04-16T22:43:04.985Z,98224.13
2023-04-16T22:45:32.457Z,98225.16
2023-04-16T22:47:59.919Z,98224.13
2023-04-16T22:50:28.460Z,98221.16
2023-04-16T22:52:57.344Z,98224.44
2023-04-16T22:55:24.791Z,98222.78
2023-04-16T22:57:52.327Z,98228.63
2023-04-16T23:00:20.821Z,98224.63
2023-04-16T23:02:48.383Z,98229.66
2023-04-16T23:05:16.308Z,98230.78
2023-04-16T23:07:43.870Z,98231.66
2023-04-16T23:10:12.845Z,98235.66
2023-04-16T23:12:40.455Z,98236.97
2023-04-16T23:15:08.822Z,98226.13
2023-04-16T23:17:36.377Z,98241.84
2023-04-16T23:20:05.239Z,98232.47
2023-04-16T23:22:32.678Z,98238.31
2023-04-16T23:25:00.169Z,98227.97
2023-04-16T23:27:29.020Z,98229.94
2023-04-16T23:29:56.482Z,98225.44
2023-04-16T23:32:23.993Z,98237.16
2023-04-16T23:34:51.506Z,98233.31
2023-04-16T23:37:19.011Z,98233.47
2023-04-16T23:39:46.486Z,98219.47
2023-04-16T23:42:13.927Z,98220.78
2023-04-16T23:44:42.796Z,98232.16
2023-04-16T23:47:10.236Z,98221.31
2023-04-16T23:49:37.757Z,98218.78
2023-04-16T23:52:05.734Z,98225.13
2023-04-16T23:54:33.349Z,98224.63
2023-04-16T23:57:01.598Z,98220.31
2023-04-16T23:59:29.047Z,98224.28
